Time;durP1;ratioP1;P1;durP2;ratioP2;P2;SDS_P1;SDS_P2;PMS_P1;PMS_P2;Temp;Humidity;BMP_temperature;BMP_pressure;BME280_temperature;BME280_humidity;BME280_pressure;Samples;Min_cycle;Max_cycle;Signal;HPM_P1;HPM_P2
2021/12/03 00:02:25;;;;;;;10.77;6.13;;;0.00;99.90;;;;;;5069665;28;20036;-85
2021/12/03 00:04:51;;;;;;;11.65;6.38;;;0.10;99.90;;;;;;5125475;27;20453;-84
2021/12/03 00:07:16;;;;;;;10.38;6.03;;;0.00;99.90;;;;;;5118115;27;20382;-84
2021/12/03 00:09:42;;;;;;;11.52;6.03;;;0.00;99.90;;;;;;5077617;28;20048;-84
2021/12/03 00:12:08;;;;;;;11.70;5.28;;;0.00;99.90;;;;;;5078214;28;20043;-84
2021/12/03 00:14:34;;;;;;;13.38;5.85;;;0.00;99.90;;;;;;5091594;28;20088;-80
2021/12/03 00:17:01;;;;;;;14.10;5.88;;;0.00;99.90;;;;;;5075065;28;20102;-72
2021/12/03 00:19:27;;;;;;;9.68;5.32;;;0.00;99.90;;;;;;5125583;27;20086;-85
2021/12/03 00:21:52;;;;;;;12.68;5.57;;;0.10;99.90;;;;;;5092260;28;20439;-85
2021/12/03 00:24:18;;;;;;;11.13;6.00;;;0.10;99.90;;;;;;5075421;28;20044;-84
2021/12/03 00:26:44;;;;;;;11.75;6.43;;;0.10;99.90;;;;;;5107623;27;20044;-86
2021/12/03 00:29:09;;;;;;;11.13;6.00;;;0.10;99.90;;;;;;5092827;28;20043;-86
2021/12/03 00:31:35;;;;;;;16.52;8.20;;;0.20;99.90;;;;;;5091459;28;20113;-85
2021/12/03 00:34:01;;;;;;;16.25;9.18;;;0.20;99.90;;;;;;5081594;28;20041;-79
2021/12/03 00:36:28;;;;;;;14.43;9.70;;;0.20;99.90;;;;;;5089260;28;20059;-80
2021/12/03 00:38:58;;;;;;;21.73;11.45;;;0.20;99.90;;;;;;5091335;28;20126;-81
2021/12/03 00:41:24;;;;;;;21.60;12.85;;;0.20;99.90;;;;;;5074311;28;20106;-80
2021/12/03 00:43:52;;;;;;;23.08;13.70;;;0.20;99.90;;;;;;5074981;28;20079;-81
2021/12/03 00:46:20;;;;;;;22.90;14.07;;;0.30;99.90;;;;;;5074451;28;20063;-81
2021/12/03 00:48:48;;;;;;;29.20;16.17;;;0.30;99.90;;;;;;5091038;28;20066;-82
2021/12/03 00:51:15;;;;;;;27.60;17.13;;;0.40;99.90;;;;;;5091437;28;20040;-84
2021/12/03 00:53:41;;;;;;;28.98;18.70;;;0.40;99.90;;;;;;5091266;28;20048;-83
2021/12/03 00:56:09;;;;;;;33.85;18.00;;;0.40;99.90;;;;;;5090666;28;20530;-83
2021/12/03 00:58:36;;;;;;;27.80;17.98;;;0.40;99.90;;;;;;5074874;28;20446;-86
2021/12/03 01:01:03;;;;;;;35.33;19.90;;;0.40;99.90;;;;;;5074265;28;20085;-77
2021/12/03 01:03:29;;;;;;;28.95;18.85;;;0.40;99.90;;;;;;5074545;28;20100;-85
2021/12/03 01:05:55;;;;;;;31.83;20.80;;;0.40;99.90;;;;;;5119923;27;20523;-87
2021/12/03 01:08:21;;;;;;;29.08;20.63;;;0.40;99.90;;;;;;5125800;27;20136;-87
2021/12/03 01:10:47;;;;;;;28.60;20.38;;;0.40;99.90;;;;;;5074556;28;20150;-85
2021/12/03 01:13:12;;;;;;;30.92;22.17;;;0.40;99.90;;;;;;5074392;28;20044;-84
2021/12/03 01:15:39;;;;;;;31.88;22.33;;;0.50;99.90;;;;;;5098165;28;20548;-84
2021/12/03 01:18:05;;;;;;;35.63;22.83;;;0.50;99.90;;;;;;5074849;28;20032;-85
2021/12/03 01:20:32;;;;;;;32.42;23.98;;;0.50;99.90;;;;;;5074441;28;20502;-79
2021/12/03 01:22:59;;;;;;;32.38;23.95;;;0.50;99.90;;;;;;5074648;28;20040;-85
2021/12/03 01:25:25;;;;;;;25.55;20.23;;;0.60;99.90;;;;;;5091021;28;20500;-85
2021/12/03 01:27:52;;;;;;;31.60;22.48;;;0.50;99.90;;;;;;5091297;28;20040;-84
2021/12/03 01:30:19;;;;;;;30.88;22.75;;;0.50;99.90;;;;;;5090623;28;20042;-83
2021/12/03 01:32:47;;;;;;;31.52;23.90;;;0.50;99.90;;;;;;5074051;28;20054;-83
2021/12/03 01:35:13;;;;;;;31.02;23.63;;;0.50;99.90;;;;;;5124020;27;20055;-81
2021/12/03 01:37:40;;;;;;;30.95;24.92;;;0.50;99.90;;;;;;5089689;28;20148;-82
2021/12/03 01:40:09;;;;;;;32.30;24.50;;;0.50;99.90;;;;;;5087731;28;20120;-80
2021/12/03 01:42:37;;;;;;;31.50;25.58;;;0.50;99.90;;;;;;5086970;28;20541;-86
2021/12/03 01:45:03;;;;;;;31.75;24.42;;;0.50;99.90;;;;;;5091325;28;20052;-85
2021/12/03 01:47:29;;;;;;;41.22;25.60;;;0.50;99.90;;;;;;5073600;28;20060;-88
2021/12/03 01:49:54;;;;;;;33.58;26.48;;;0.50;99.90;;;;;;5091820;28;20594;-88
2021/12/03 01:52:20;;;;;;;30.45;25.15;;;0.60;99.90;;;;;;5075201;28;20040;-87
2021/12/03 01:54:47;;;;;;;31.42;25.00;;;0.60;99.90;;;;;;5074866;28;20039;-86
2021/12/03 01:57:12;;;;;;;32.65;24.42;;;0.50;99.90;;;;;;5089083;28;20044;-86
2021/12/03 01:59:38;;;;;;;30.67;24.45;;;0.50;99.90;;;;;;5102786;28;20040;-88
2021/12/03 02:02:04;;;;;;;29.98;25.55;;;0.60;99.90;;;;;;5074520;28;20044;-85
2021/12/03 02:04:30;;;;;;;27.25;23.77;;;0.50;99.90;;;;;;5090493;28;20043;-88
2021/12/03 02:06:56;;;;;;;29.98;22.42;;;0.60;99.90;;;;;;5074117;28;20056;-81
2021/12/03 02:09:21;;;;;;;30.33;22.20;;;0.50;99.90;;;;;;5107649;27;20037;-74
2021/12/03 02:11:47;;;;;;;23.48;21.00;;;0.50;99.90;;;;;;5086764;28;20413;-82
2021/12/03 02:14:13;;;;;;;25.75;22.17;;;0.50;99.90;;;;;;5085521;28;20066;-83
2021/12/03 02:16:40;;;;;;;28.08;21.40;;;0.50;99.90;;;;;;5089919;28;20036;-86
2021/12/03 02:19:06;;;;;;;27.45;21.33;;;0.50;99.90;;;;;;5092609;28;20062;-90
2021/12/03 02:21:32;;;;;;;26.17;20.48;;;0.50;99.90;;;;;;5092625;28;20488;-80
2021/12/03 02:23:58;;;;;;;27.58;22.67;;;0.50;99.90;;;;;;5092454;28;20044;-90
2021/12/03 02:26:23;;;;;;;27.95;22.00;;;0.50;99.90;;;;;;5109170;28;20105;-89
2021/12/03 02:28:50;;;;;;;24.88;20.88;;;0.50;99.90;;;;;;5073875;28;20446;-83
2021/12/03 02:31:18;;;;;;;25.00;20.05;;;0.50;99.90;;;;;;5082846;28;20039;-83
2021/12/03 02:33:44;;;;;;;26.35;20.27;;;0.40;99.90;;;;;;5072090;28;20562;-84
2021/12/03 02:36:10;;;;;;;22.85;20.38;;;0.50;99.90;;;;;;5090009;28;20074;-84
2021/12/03 02:38:36;;;;;;;23.42;21.00;;;0.50;99.90;;;;;;5089037;28;20040;-84
2021/12/03 02:41:02;;;;;;;26.35;20.30;;;0.40;99.90;;;;;;5089596;28;20093;-77
2021/12/03 02:43:28;;;;;;;24.63;20.95;;;0.40;99.90;;;;;;5089733;28;20044;-84
2021/12/03 02:45:56;;;;;;;26.05;20.63;;;0.40;99.90;;;;;;5123571;28;20036;-83
2021/12/03 02:48:22;;;;;;;24.38;20.55;;;0.40;99.90;;;;;;5087241;28;20052;-84
2021/12/03 02:50:48;;;;;;;27.77;21.20;;;0.40;99.90;;;;;;5086082;28;20052;-83
2021/12/03 02:53:14;;;;;;;23.55;20.05;;;0.30;99.90;;;;;;5116661;28;20048;-84
2021/12/03 02:55:40;;;;;;;24.60;22.10;;;0.30;99.90;;;;;;5089215;28;20132;-83
2021/12/03 02:58:06;;;;;;;27.58;23.10;;;0.30;99.90;;;;;;5090641;28;20045;-76
2021/12/03 03:00:33;;;;;;;25.55;22.98;;;0.30;99.90;;;;;;5086210;28;20045;-80
2021/12/03 03:02:59;;;;;;;23.42;21.00;;;0.30;99.90;;;;;;5104743;28;20052;-84
2021/12/03 03:05:27;;;;;;;25.15;21.40;;;0.30;99.90;;;;;;5069805;28;20056;-84
2021/12/03 03:07:53;;;;;;;27.65;22.63;;;0.30;99.90;;;;;;5081796;28;20118;-83
2021/12/03 03:10:24;;;;;;;31.73;22.30;;;0.30;99.90;;;;;;5073151;28;20036;-84
2021/12/03 03:12:51;;;;;;;27.73;22.33;;;0.30;99.90;;;;;;5064064;28;20043;-87
2021/12/03 03:15:17;;;;;;;25.52;21.85;;;0.30;99.90;;;;;;5069392;28;20076;-83
2021/12/03 03:17:44;;;;;;;26.35;22.88;;;0.30;99.90;;;;;;5079391;28;20048;-84
2021/12/03 03:20:10;;;;;;;27.33;22.77;;;0.30;99.90;;;;;;5090053;28;20400;-77
2021/12/03 03:22:38;;;;;;;28.25;23.83;;;0.30;99.90;;;;;;5114907;28;20477;-85
2021/12/03 03:25:05;;;;;;;27.23;24.33;;;0.30;99.90;;;;;;5078623;28;20048;-84
2021/12/03 03:27:31;;;;;;;26.95;24.00;;;0.30;99.90;;;;;;5116841;28;20043;-83
2021/12/03 03:29:57;;;;;;;27.40;24.60;;;0.30;99.90;;;;;;5069358;28;20044;-85
2021/12/03 03:32:24;;;;;;;29.95;26.48;;;0.30;99.90;;;;;;5105611;28;20556;-87
2021/12/03 03:34:50;;;;;;;27.45;23.60;;;0.30;99.90;;;;;;5124449;28;20085;-73
2021/12/03 03:37:16;;;;;;;28.25;25.20;;;0.40;99.90;;;;;;5123686;28;20067;-86
2021/12/03 03:39:43;;;;;;;30.33;26.25;;;0.30;99.90;;;;;;5052996;28;20048;-85
2021/12/03 03:42:09;;;;;;;30.98;26.45;;;0.30;99.90;;;;;;5088228;28;20032;-84
2021/12/03 03:44:34;;;;;;;27.63;24.77;;;0.30;99.90;;;;;;5106447;28;20561;-86
2021/12/03 03:47:01;;;;;;;30.40;25.35;;;0.30;99.90;;;;;;5088899;28;20524;-84
2021/12/03 03:49:27;;;;;;;32.47;25.35;;;0.30;99.90;;;;;;5092411;28;20051;-84
2021/12/03 03:51:55;;;;;;;28.25;25.27;;;0.30;99.90;;;;;;5079443;28;20060;-85
2021/12/03 03:54:21;;;;;;;31.70;26.63;;;0.30;99.90;;;;;;5076494;28;20044;-82
2021/12/03 03:56:47;;;;;;;34.45;26.63;;;0.30;99.90;;;;;;5075293;28;20142;-80
2021/12/03 03:59:16;;;;;;;31.08;27.40;;;0.30;99.90;;;;;;5092131;28;20050;-78
2021/12/03 04:01:42;;;;;;;31.58;27.45;;;0.30;99.90;;;;;;5091660;28;20048;-75
2021/12/03 04:04:08;;;;;;;31.13;25.98;;;0.30;99.90;;;;;;5077317;28;20045;-79
2021/12/03 04:06:34;;;;;;;27.52;24.38;;;0.30;99.90;;;;;;5065961;28;20052;-79
2021/12/03 04:08:59;;;;;;;34.65;27.90;;;0.30;99.90;;;;;;5075298;28;20040;-84
2021/12/03 04:11:25;;;;;;;32.80;26.70;;;0.30;99.90;;;;;;5109609;28;20732;-83
2021/12/03 04:13:51;;;;;;;34.17;26.45;;;0.30;99.90;;;;;;5092023;28;20083;-82
2021/12/03 04:16:17;;;;;;;30.48;24.75;;;0.30;99.90;;;;;;5092624;28;20052;-83
2021/12/03 04:18:43;;;;;;;33.53;27.45;;;0.30;99.90;;;;;;5091032;28;20101;-83
2021/12/03 04:21:09;;;;;;;32.67;26.55;;;0.30;99.90;;;;;;5126609;27;20048;-83
2021/12/03 04:23:35;;;;;;;35.33;28.02;;;0.30;99.90;;;;;;5091441;28;20071;-82
2021/12/03 04:26:00;;;;;;;29.35;25.70;;;0.30;99.90;;;;;;5074369;28;20071;-82
2021/12/03 04:28:26;;;;;;;34.00;28.33;;;0.30;99.90;;;;;;5067617;28;20042;-83
2021/12/03 04:30:52;;;;;;;32.65;27.55;;;0.40;99.90;;;;;;5091818;28;20055;-71
2021/12/03 04:33:19;;;;;;;32.10;27.30;;;0.30;99.90;;;;;;5074743;28;20128;-82
2021/12/03 04:35:45;;;;;;;36.13;27.50;;;0.30;99.90;;;;;;5091108;28;20429;-82
2021/12/03 04:38:11;;;;;;;30.48;25.50;;;0.30;99.90;;;;;;5070478;28;20055;-82
2021/12/03 04:40:39;;;;;;;36.17;25.77;;;0.40;99.90;;;;;;5090905;28;20036;-83
2021/12/03 04:43:06;;;;;;;31.50;26.30;;;0.30;99.90;;;;;;5091890;28;20059;-83
2021/12/03 04:45:32;;;;;;;31.02;25.60;;;0.30;99.90;;;;;;5091678;28;20070;-83
2021/12/03 04:47:59;;;;;;;31.85;27.05;;;0.40;99.90;;;;;;5092046;28;20152;-82
2021/12/03 04:50:28;;;;;;;32.10;25.17;;;0.40;99.90;;;;;;5124026;27;20053;-83
2021/12/03 04:52:54;;;;;;;28.90;25.63;;;0.40;99.90;;;;;;5087549;28;20080;-83
2021/12/03 04:55:22;;;;;;;27.92;23.45;;;0.50;99.90;;;;;;5074207;28;20048;-82
2021/12/03 04:57:53;;;;;;;31.45;25.27;;;0.40;99.90;;;;;;5074247;28;20484;-87
2021/12/03 05:00:25;;;;;;;29.73;24.48;;;0.50;99.90;;;;;;5090504;28;20161;-85
2021/12/03 05:02:52;;;;;;;30.08;24.15;;;0.50;99.90;;;;;;5074486;28;20040;-85
2021/12/03 05:05:18;;;;;;;29.85;24.80;;;0.60;99.90;;;;;;5091573;28;20434;-85
2021/12/03 05:10:41;;;;;;;29.02;22.70;;;0.60;99.90;;;;;;5078039;28;20452;-85
2021/12/03 05:13:13;;;;;;;37.83;23.75;;;0.70;99.90;;;;;;5092114;28;20036;-85
2021/12/03 05:15:39;;;;;;;;;;;0.70;99.90;;;;;;5073958;28;20043;-86
2021/12/03 05:18:07;;;;;;;25.60;21.45;;;0.80;99.90;;;;;;5123000;27;19921;-87
2021/12/03 05:20:33;;;;;;;32.83;21.65;;;0.80;99.90;;;;;;5091602;28;20049;-85
2021/12/03 05:22:59;;;;;;;24.45;20.50;;;0.80;99.90;;;;;;5091392;28;20094;-87
2021/12/03 05:25:25;;;;;;;27.08;19.85;;;0.80;99.90;;;;;;5085912;28;20041;-88
2021/12/03 05:27:52;;;;;;;27.45;18.25;;;0.90;99.90;;;;;;5052609;28;20063;-87
2021/12/03 05:30:17;;;;;;;23.38;18.80;;;0.90;99.90;;;;;;5082570;28;20073;-86
2021/12/03 05:32:43;;;;;;;26.52;17.70;;;1.00;99.90;;;;;;5090269;28;20035;-83
2021/12/03 05:35:10;;;;;;;19.42;16.60;;;0.90;99.90;;;;;;5090753;28;20036;-83
2021/12/03 05:37:35;;;;;;;20.05;16.65;;;0.90;99.90;;;;;;5089807;28;20036;-84
2021/12/03 05:40:03;;;;;;;25.17;16.33;;;1.00;99.90;;;;;;5073863;28;20097;-80
2021/12/03 05:42:29;;;;;;;19.60;15.40;;;1.00;99.90;;;;;;5073633;28;20036;-86
2021/12/03 05:44:54;;;;;;;22.45;16.35;;;1.00;99.90;;;;;;5088729;28;20083;-87
2021/12/03 05:47:20;;;;;;;21.00;14.80;;;1.10;99.90;;;;;;5088114;28;20055;-86
2021/12/03 05:49:46;;;;;;;17.02;13.45;;;1.10;99.90;;;;;;5088845;28;20186;-87
2021/12/03 05:52:12;;;;;;;20.48;13.63;;;1.10;99.90;;;;;;5072419;28;20116;-75
2021/12/03 05:54:37;;;;;;;18.27;13.90;;;1.20;99.90;;;;;;5093258;28;20050;-87
2021/12/03 05:57:03;;;;;;;16.05;12.25;;;1.10;99.90;;;;;;5090773;28;20522;-83
2021/12/03 05:59:29;;;;;;;19.67;12.75;;;1.20;99.90;;;;;;5074153;28;20040;-89
2021/12/03 06:01:54;;;;;;;18.05;11.45;;;1.20;99.90;;;;;;5095674;28;20040;-89
2021/12/03 06:04:20;;;;;;;16.40;11.90;;;1.20;99.90;;;;;;5090061;28;20035;-83
2021/12/03 06:06:46;;;;;;;16.17;11.68;;;1.30;99.90;;;;;;5095871;28;20040;-78
2021/12/03 06:09:11;;;;;;;19.90;12.05;;;1.20;99.90;;;;;;5111584;27;20089;-77
2021/12/03 06:11:38;;;;;;;18.85;11.60;;;1.20;99.90;;;;;;5096575;28;20055;-83
2021/12/03 06:14:03;;;;;;;17.17;11.07;;;1.30;99.90;;;;;;5090420;28;20044;-83
2021/12/03 06:16:29;;;;;;;16.20;10.60;;;1.30;99.90;;;;;;5080350;28;20048;-84
2021/12/03 06:18:55;;;;;;;15.23;10.18;;;1.30;99.90;;;;;;5088404;28;20126;-81
2021/12/03 06:21:20;;;;;;;12.43;9.85;;;1.30;99.90;;;;;;5081712;28;20037;-81
2021/12/03 06:23:47;;;;;;;13.85;9.77;;;1.30;99.90;;;;;;5085939;28;20055;-81
2021/12/03 06:26:13;;;;;;;13.35;9.32;;;1.40;99.90;;;;;;5083939;28;20455;-81
2021/12/03 06:28:41;;;;;;;12.65;9.40;;;1.40;99.90;;;;;;5079989;28;20124;-84
2021/12/03 06:31:07;;;;;;;16.85;8.65;;;1.40;99.90;;;;;;5069664;28;20041;-78
2021/12/03 06:33:33;;;;;;;12.52;9.27;;;1.40;99.90;;;;;;5079987;28;20098;-79
2021/12/03 06:35:59;;;;;;;15.98;8.85;;;1.50;99.90;;;;;;5069693;28;20040;-79
2021/12/03 06:38:26;;;;;;;16.67;8.90;;;1.50;99.90;;;;;;5084533;28;20504;-80
2021/12/03 06:40:53;;;;;;;13.13;9.30;;;1.50;99.90;;;;;;5086113;28;20048;-72
2021/12/03 06:43:19;;;;;;;17.15;9.63;;;1.60;99.90;;;;;;5084507;28;20556;-77
2021/12/03 06:45:45;;;;;;;15.75;9.52;;;1.60;99.90;;;;;;5068733;28;20041;-77
2021/12/03 06:48:11;;;;;;;20.05;9.65;;;1.70;99.90;;;;;;5082419;28;20404;-80
2021/12/03 06:50:37;;;;;;;13.82;9.10;;;1.70;99.90;;;;;;5070421;28;20056;-79
2021/12/03 06:53:24;;;;;;;11.98;8.73;;;1.80;99.90;;;;;;5072656;28;20534;-77
2021/12/03 06:55:55;;;;;;;18.35;9.82;;;1.80;99.90;;;;;;5069379;28;20048;-78
2021/12/03 06:58:22;;;;;;;18.48;10.30;;;1.80;99.90;;;;;;5079002;28;20120;-77
2021/12/03 07:00:53;;;;;;;18.70;11.05;;;1.90;99.90;;;;;;5081943;28;20452;-78
2021/12/03 07:03:19;;;;;;;15.43;10.02;;;1.80;99.90;;;;;;5072965;28;20126;-73
2021/12/03 07:05:44;;;;;;;16.02;9.68;;;1.90;99.90;;;;;;5104482;28;20174;-76
2021/12/03 07:08:10;;;;;;;12.73;8.75;;;1.90;99.90;;;;;;5092548;28;20036;-80
2021/12/03 07:10:36;;;;;;;14.68;9.35;;;2.00;99.90;;;;;;5072701;28;20043;-81
2021/12/03 07:13:02;;;;;;;16.98;9.43;;;1.90;99.90;;;;;;5104210;28;20045;-75
2021/12/03 07:15:28;;;;;;;16.95;9.77;;;1.90;99.90;;;;;;5070816;28;20465;-81
2021/12/03 07:17:54;;;;;;;14.02;9.73;;;1.90;99.90;;;;;;5110414;28;20044;-86
2021/12/03 07:20:22;;;;;;;17.10;10.32;;;1.90;99.90;;;;;;5077931;28;20561;-83
2021/12/03 07:22:48;;;;;;;18.70;10.52;;;1.90;99.90;;;;;;5061415;28;20082;-80
2021/12/03 07:25:15;;;;;;;19.90;10.57;;;2.00;99.90;;;;;;5114944;27;20488;-81
2021/12/03 07:27:41;;;;;;;18.40;10.43;;;2.00;99.90;;;;;;5066502;28;20380;-84
2021/12/03 07:30:08;;;;;;;20.27;11.50;;;2.00;99.90;;;;;;5095668;28;20050;-81
2021/12/03 07:32:34;;;;;;;17.08;9.95;;;2.10;99.90;;;;;;5061926;28;20489;-79
2021/12/03 07:35:00;;;;;;;19.33;10.52;;;2.10;99.90;;;;;;5080661;28;20036;-79
2021/12/03 07:37:26;;;;;;;17.75;10.25;;;2.20;99.90;;;;;;5074669;28;20040;-78
2021/12/03 07:39:52;;;;;;;14.38;9.32;;;2.10;99.90;;;;;;5064789;28;20121;-78
2021/12/03 07:42:20;;;;;;;18.13;9.55;;;2.20;99.90;;;;;;5073236;28;20044;-73
2021/12/03 07:44:46;;;;;;;17.75;9.68;;;2.20;99.90;;;;;;5108699;27;20132;-77
2021/12/03 07:47:12;;;;;;;20.52;12.07;;;2.30;99.90;;;;;;5070635;28;20056;-76
2021/12/03 07:49:39;;;;;;;20.48;12.85;;;2.30;99.90;;;;;;5061711;28;20430;-75
2021/12/03 07:52:07;;;;;;;24.55;14.40;;;2.40;99.90;;;;;;5106084;28;20135;-75
2021/12/03 07:54:33;;;;;;;20.85;14.38;;;2.40;99.90;;;;;;5055955;28;20048;-75
2021/12/03 07:56:58;;;;;;;23.92;16.02;;;2.50;99.90;;;;;;5039173;28;20094;-75
2021/12/03 07:59:24;;;;;;;27.27;18.00;;;2.50;99.90;;;;;;5068733;28;20044;-76
2021/12/03 08:01:50;;;;;;;23.33;18.05;;;2.60;99.90;;;;;;5081617;28;20044;-76
2021/12/03 08:04:15;;;;;;;26.65;17.85;;;2.60;99.90;;;;;;5109743;28;20377;-75
2021/12/03 08:06:42;;;;;;;28.60;18.33;;;2.60;99.90;;;;;;5060687;28;20037;-76
2021/12/03 08:09:09;;;;;;;26.17;18.20;;;2.60;99.90;;;;;;5036413;28;20475;-75
2021/12/03 08:11:37;;;;;;;33.78;20.35;;;2.70;99.90;;;;;;5052347;28;20405;-76
2021/12/03 08:14:02;;;;;;;30.10;20.80;;;2.70;99.90;;;;;;5040777;28;20505;-76
2021/12/03 08:16:28;;;;;;;27.27;19.80;;;2.70;99.90;;;;;;5113720;27;20059;-77
2021/12/03 08:18:53;;;;;;;30.17;19.95;;;2.70;99.90;;;;;;5064705;28;20044;-78
2021/12/03 08:21:19;;;;;;;29.67;20.38;;;2.70;99.90;;;;;;5074260;28;20036;-78
2021/12/03 08:23:47;;;;;;;30.83;20.38;;;2.80;99.90;;;;;;5092123;28;20056;-78
2021/12/03 08:26:13;;;;;;;29.13;20.27;;;2.80;99.90;;;;;;5081883;28;20036;-76
2021/12/03 08:28:39;;;;;;;28.02;20.20;;;2.80;99.90;;;;;;5091705;28;20074;-77
2021/12/03 08:31:04;;;;;;;29.58;19.52;;;2.80;99.90;;;;;;5114591;27;20047;-76
2021/12/03 08:33:30;;;;;;;32.83;19.67;;;2.90;99.90;;;;;;5108149;28;20415;-77
2021/12/03 08:35:55;;;;;;;27.92;19.25;;;2.90;99.90;;;;;;5091158;28;20060;-77
2021/12/03 08:38:21;;;;;;;31.08;21.10;;;2.90;99.90;;;;;;5095558;28;20040;-76
2021/12/03 08:40:50;;;;;;;28.98;19.45;;;2.90;99.90;;;;;;5095318;28;20097;-77
2021/12/03 08:43:15;;;;;;;27.27;19.45;;;2.90;99.90;;;;;;5108940;28;20130;-77
2021/12/03 08:45:41;;;;;;;27.75;18.00;;;2.90;99.90;;;;;;5088722;28;20043;-78
2021/12/03 08:48:07;;;;;;;26.50;19.05;;;3.00;99.90;;;;;;5103289;27;20052;-77
2021/12/03 08:50:47;;;;;;;28.65;19.25;;;3.00;99.90;;;;;;5095965;28;20054;-77
2021/12/03 08:54:48;;;;;;;27.05;18.20;;;3.10;99.90;;;;;;5060007;28;20048;-77
2021/12/03 08:56:07;;;;;;;25.88;19.05;;;3.10;99.90;;;;;;5090982;28;20052;-78
2021/12/03 08:58:32;;;;;;;27.13;17.52;;;3.20;99.90;;;;;;5090830;28;20169;-78
2021/12/03 09:00:58;;;;;;;23.08;16.85;;;3.20;99.90;;;;;;5090426;28;20051;-78
2021/12/03 09:03:24;;;;;;;29.65;16.73;;;3.20;99.90;;;;;;5091730;28;20054;-78
2021/12/03 09:05:50;;;;;;;27.60;17.38;;;3.30;99.90;;;;;;5090842;28;20040;-78
2021/12/03 09:08:16;;;;;;;24.48;16.63;;;3.30;99.90;;;;;;5091164;28;20507;-77
2021/12/03 09:10:42;;;;;;;25.08;16.85;;;3.30;99.90;;;;;;5090457;28;20048;-76
2021/12/03 09:13:07;;;;;;;26.85;16.83;;;3.30;99.90;;;;;;5091325;28;20040;-77
2021/12/03 09:16:18;;;;;;;28.90;16.20;;;3.40;99.90;;;;;;5083402;28;20124;-78
2021/12/03 09:18:34;;;;;;;21.00;13.25;;;3.40;99.90;;;;;;5082860;28;20052;-77
2021/12/03 09:21:15;;;;;;;23.48;13.38;;;3.50;99.90;;;;;;5090052;28;20048;-77
2021/12/03 09:26:23;;;;;;;15.98;11.27;;;3.60;99.90;;;;;;5091015;28;20130;-76
2021/12/03 09:28:55;;;;;;;16.85;11.27;;;3.60;99.90;;;;;;5090178;28;20048;-77
2021/12/03 09:31:22;;;;;;;23.90;10.52;;;3.60;99.90;;;;;;5089043;28;20043;-77
2021/12/03 09:33:49;;;;;;;20.13;11.32;;;3.60;99.90;;;;;;5090445;28;20066;-77
2021/12/03 09:36:15;;;;;;;18.85;9.45;;;3.60;99.90;;;;;;5073264;28;20385;-77
2021/12/03 09:38:41;;;;;;;17.77;9.50;;;3.70;99.90;;;;;;5073308;28;20047;-77
2021/12/03 09:41:16;;;;;;;17.58;9.50;;;3.70;99.90;;;;;;5081740;28;20044;-77
2021/12/03 09:43:48;;;;;;;18.70;10.25;;;3.70;99.90;;;;;;5088106;28;20070;-75
2021/12/03 09:46:18;;;;;;;17.35;9.30;;;3.70;99.90;;;;;;5072312;28;20048;-79
2021/12/03 09:51:25;;;;;;;14.90;8.77;;;3.80;99.90;;;;;;5090564;28;20056;-76
2021/12/03 09:56:31;;;;;;;19.40;8.38;;;3.80;99.90;;;;;;5089427;28;20040;-77
2021/12/03 10:01:45;;;;;;;17.48;7.82;;;3.90;99.90;;;;;;5089868;28;20040;-79
2021/12/03 10:10:46;;;;;;;17.50;6.30;;;3.90;99.90;;;;;;5084769;28;20052;-75
2021/12/03 10:15:59;;;;;;;16.08;7.13;;;3.90;99.90;;;;;;5102143;27;19921;-76
2021/12/03 10:18:41;;;;;;;16.33;6.55;;;3.90;99.90;;;;;;5061350;28;20045;-76
2021/12/03 10:21:20;;;;;;;14.15;6.18;;;3.90;99.90;;;;;;5050435;28;20491;-75
2021/12/03 10:24:18;;;;;;;15.13;6.63;;;3.90;99.90;;;;;;5074454;28;20051;-75
2021/12/03 10:29:33;;;;;;;16.92;6.15;;;4.00;99.90;;;;;;5089116;28;20043;-78
2021/12/03 10:41:14;;;;;;;13.90;5.63;;;4.00;99.90;;;;;;5089444;28;20059;-77
2021/12/03 10:46:20;;;;;;;14.50;5.85;;;4.10;99.70;;;;;;5089024;28;20052;-79
2021/12/03 10:49:00;;;;;;;11.40;4.65;;;4.10;99.90;;;;;;5072309;28;20052;-76
2021/12/03 10:51:37;;;;;;;12.98;5.10;;;4.10;99.70;;;;;;5105678;28;20094;-76
2021/12/03 10:54:11;;;;;;;12.93;4.72;;;4.00;99.50;;;;;;5050813;28;20056;-77
2021/12/03 11:07:56;;;;;;;18.33;5.30;;;4.10;99.20;;;;;;5089510;28;20056;-78
2021/12/03 11:22:07;;;;;;;11.80;3.55;;;4.10;98.40;;;;;;5092701;28;20040;-79
2021/12/03 11:40:47;;;;;;;8.93;2.15;;;4.40;98.00;;;;;;5093307;28;20044;-75
2021/12/03 12:45:08;;;;;;;6.93;4.03;;;3.80;99.90;;;;;;5090992;28;20071;-74
2021/12/03 12:56:27;;;;;;;7.15;3.13;;;3.90;99.90;;;;;;5086702;28;20053;-76
2021/12/03 13:08:06;;;;;;;7.50;3.63;;;4.00;99.90;;;;;;5089096;28;20044;-81
2021/12/03 13:10:21;;;;;;;8.48;3.50;;;4.10;99.90;;;;;;5077787;28;20048;-79
2021/12/03 13:15:50;;;;;;;9.25;2.58;;;4.10;99.90;;;;;;5074311;28;20044;-81
2021/12/03 13:39:10;;;;;;;10.75;3.08;;;4.30;99.70;;;;;;5092613;28;20040;-79
2021/12/03 14:18:51;;;;;;;6.15;3.38;;;4.60;98.60;;;;;;5090759;28;20048;-73
2021/12/03 14:36:25;;;;;;;5.78;3.65;;;4.70;98.50;;;;;;5089006;28;20130;-78
2021/12/03 14:38:53;;;;;;;7.32;3.85;;;4.70;98.50;;;;;;5089162;28;20080;-78
2021/12/03 14:44:16;;;;;;;9.30;4.13;;;4.70;98.60;;;;;;5088820;28;20074;-79
2021/12/03 14:55:41;;;;;;;6.07;3.40;;;4.80;98.90;;;;;;5082474;28;20041;-74
2021/12/03 14:58:15;;;;;;;8.80;4.10;;;4.80;98.90;;;;;;5051838;28;20079;-78
2021/12/03 15:08:12;;;;;;;6.93;3.78;;;4.80;99.00;;;;;;5089446;28;20048;-84
2021/12/03 15:10:54;;;;;;;6.15;3.88;;;4.70;99.00;;;;;;5087493;28;20048;-81
2021/12/03 15:13:46;;;;;;;8.13;4.07;;;4.70;99.00;;;;;;5088541;28;20051;-82
2021/12/03 15:22:03;;;;;;;7.20;4.35;;;4.70;99.20;;;;;;5049100;28;20075;-85
2021/12/03 15:32:43;;;;;;;6.35;5.43;;;4.70;99.50;;;;;;5089580;28;20139;-86
2021/12/03 15:40:53;;;;;;;7.22;5.90;;;4.70;99.90;;;;;;5089125;28;20052;-77
2021/12/03 15:57:12;;;;;;;7.80;6.05;;;4.80;99.90;;;;;;5077296;28;20405;-75
2021/12/03 16:19:17;;;;;;;8.20;7.45;;;4.80;99.90;;;;;;5091326;28;20044;-76
2021/12/03 16:27:38;;;;;;;9.18;8.27;;;4.80;99.90;;;;;;5070879;28;20127;-78
2021/12/03 16:43:57;;;;;;;9.80;8.90;;;4.80;99.90;;;;;;5088342;28;20122;-84
2021/12/03 16:51:45;;;;;;;10.90;9.82;;;4.90;99.90;;;;;;5065461;28;20048;-75
2021/12/03 16:54:20;;;;;;;11.20;10.30;;;4.90;99.90;;;;;;5057544;28;20037;-86
2021/12/03 16:56:49;;;;;;;11.68;10.45;;;4.80;99.90;;;;;;5054338;28;20049;-76
2021/12/03 16:59:15;;;;;;;11.55;10.52;;;4.80;99.90;;;;;;5088658;28;20059;-84
2021/12/03 17:12:17;;;;;;;13.70;12.40;;;4.80;99.90;;;;;;5090594;28;20077;-86
2021/12/03 17:14:54;;;;;;;14.30;12.80;;;4.80;99.90;;;;;;5090922;28;20105;-80
2021/12/03 17:18:03;;;;;;;15.65;14.18;;;4.90;99.90;;;;;;5090529;28;20051;-87
2021/12/03 17:26:29;;;;;;;15.48;13.88;;;4.80;99.90;;;;;;5090272;28;20040;-85
2021/12/03 17:29:09;;;;;;;17.67;15.90;;;4.80;99.90;;;;;;5089171;28;20078;-87
2021/12/03 18:01:12;;;;;;;23.42;21.00;;;4.70;99.90;;;;;;5109183;27;20127;-83
2021/12/03 18:43:16;;;;;;;23.92;21.40;;;4.70;99.90;;;;;;5083622;28;20056;-76
2021/12/03 18:54:35;;;;;;;25.08;22.42;;;4.80;99.90;;;;;;5089692;28;20072;-80
2021/12/03 18:57:17;;;;;;;26.20;22.92;;;4.80;99.90;;;;;;5072344;28;20040;-77
2021/12/03 18:59:55;;;;;;;26.58;21.58;;;4.80;99.90;;;;;;5089014;28;20053;-80
2021/12/03 19:02:24;;;;;;;24.67;22.00;;;4.90;99.90;;;;;;5087620;28;20052;-80
2021/12/03 19:07:28;;;;;;;28.70;24.40;;;4.90;99.90;;;;;;5072408;28;20048;-75
2021/12/03 19:09:55;;;;;;;26.10;23.00;;;4.90;99.90;;;;;;5088853;28;20067;-80
2021/12/03 19:12:25;;;;;;;25.90;23.20;;;4.90;99.90;;;;;;5089756;28;20040;-79
2021/12/03 19:14:57;;;;;;;28.67;23.77;;;4.90;99.90;;;;;;5089097;28;20044;-75
2021/12/03 19:17:24;;;;;;;27.92;23.48;;;4.90;99.90;;;;;;5088558;28;20044;-80
2021/12/03 19:19:56;;;;;;;26.10;22.92;;;4.90;99.90;;;;;;5073952;28;20126;-80
2021/12/03 19:22:22;;;;;;;26.03;22.70;;;4.90;99.90;;;;;;5073198;28;20397;-74
2021/12/03 19:24:49;;;;;;;26.00;22.73;;;4.80;99.90;;;;;;5072685;28;20632;-75
2021/12/03 19:27:14;;;;;;;36.97;23.45;;;4.90;99.90;;;;;;5116632;27;20072;-79
2021/12/03 19:29:42;;;;;;;26.25;23.40;;;4.90;99.90;;;;;;5089618;28;20052;-81
2021/12/03 19:32:09;;;;;;;27.27;23.05;;;4.90;99.90;;;;;;5075452;28;20051;-75
2021/12/03 19:34:38;;;;;;;28.20;23.45;;;4.90;99.90;;;;;;5076157;28;20130;-82
2021/12/03 19:37:04;;;;;;;26.15;22.50;;;4.90;99.90;;;;;;5075869;28;20138;-74
2021/12/03 19:39:30;;;;;;;27.70;23.90;;;4.90;99.90;;;;;;5092151;28;20418;-82
2021/12/03 19:42:14;;;;;;;25.08;22.13;;;4.90;99.90;;;;;;5092561;28;20133;-83
2021/12/03 19:47:11;;;;;;;28.10;23.20;;;4.90;99.90;;;;;;5092441;28;20080;-83
2021/12/03 19:49:47;;;;;;;28.95;24.45;;;4.90;99.90;;;;;;5075245;28;20059;-84
2021/12/03 19:52:25;;;;;;;29.42;24.35;;;4.90;99.90;;;;;;5075869;28;20075;-83
2021/12/03 19:54:54;;;;;;;29.23;24.85;;;4.90;99.90;;;;;;5075898;28;20070;-81